Time;durP1;ratioP1;P1;durP2;ratioP2;P2;SDS_P1;SDS_P2;PMS_P1;PMS_P2;Temp;Humidity;BMP_temperature;BMP_pressure;BME280_temperature;BME280_humidity;BME280_pressure;Samples;Min_cycle;Max_cycle;Signal;HPM_P1;HPM_P2
2023/10/22 00:01:27;;;;;;;3.60;2.00;;;;;;;16.76;54.30;97396.74;103944;1283;74448;-41
2023/10/22 00:03:53;;;;;;;3.20;1.90;;;;;;;16.76;54.26;97392.23;103874;1282;66122;-41
2023/10/22 00:06:20;;;;;;;2.50;1.70;;;;;;;16.76;54.19;97391.56;103771;1277;72883;-41
2023/10/22 00:08:47;;;;;;;2.40;2.00;;;;;;;16.76;54.20;97388.63;103667;1283;61192;-41
2023/10/22 00:11:14;;;;;;;3.50;2.10;;;;;;;16.76;54.23;97387.61;103878;1277;61382;-41
2023/10/22 00:13:40;;;;;;;2.60;2.10;;;;;;;16.76;54.30;97391.63;103959;1277;74011;-41
2023/10/22 00:16:07;;;;;;;2.80;2.00;;;;;;;16.76;54.28;97395.73;103904;1282;65619;-41
2023/10/22 00:18:34;;;;;;;2.80;2.00;;;;;;;16.76;54.25;97397.95;103699;1278;72486;-41
2023/10/22 00:21:00;;;;;;;3.20;2.00;;;;;;;16.76;54.19;97396.91;103671;1281;61295;-41
2023/10/22 00:23:27;;;;;;;3.00;2.10;;;;;;;16.76;54.21;97394.27;103955;1276;61388;-41
2023/10/22 00:25:54;;;;;;;3.60;1.90;;;;;;;16.76;54.23;97389.63;103926;1277;74439;-41
2023/10/22 00:28:21;;;;;;;2.80;2.00;;;;;;;16.76;54.19;97388.70;104003;1282;65936;-41
2023/10/22 00:30:47;;;;;;;2.70;2.00;;;;;;;16.76;54.22;97377.95;103955;1277;72493;-41
2023/10/22 00:33:14;;;;;;;2.40;1.90;;;;;;;16.76;54.23;97378.42;103843;1281;61390;-41
2023/10/22 00:35:41;;;;;;;2.30;1.80;;;;;;;16.76;54.33;97376.48;103629;1277;61399;-41
2023/10/22 00:38:07;;;;;;;3.20;1.90;;;;;;;16.76;54.22;97376.27;103573;1282;74609;-41
2023/10/22 00:40:35;;;;;;;6.20;2.10;;;;;;;16.76;54.21;97371.99;103729;1283;64116;-42
2023/10/22 00:43:06;;;;;;;2.90;1.90;;;;;;;16.76;54.27;97365.20;103771;1277;72545;-43
2023/10/22 00:45:35;;;;;;;3.10;2.10;;;;;;;16.76;54.26;97366.98;104229;1282;61269;-43
2023/10/22 00:48:02;;;;;;;2.50;1.90;;;;;;;16.76;54.23;97363.95;103899;1277;61266;-43
2023/10/22 00:50:29;;;;;;;2.60;2.00;;;;;;;16.76;54.21;97362.81;103979;1277;73502;-43
2023/10/22 00:52:56;;;;;;;3.10;2.10;;;;;;;16.75;54.22;97358.06;103894;1282;66376;-42
2023/10/22 00:55:22;;;;;;;3.00;2.30;;;;;;;16.76;54.19;97357.62;104330;1279;72508;-42
2023/10/22 00:57:49;;;;;;;3.10;1.80;;;;;;;16.75;54.22;97357.08;103457;1283;61407;-41
2023/10/22 01:00:16;;;;;;;3.00;2.20;;;;;;;16.76;54.21;97356.32;103589;1277;61476;-42
2023/10/22 01:02:43;;;;;;;2.20;1.80;;;;;;;16.76;54.22;97351.45;103648;1277;74487;-41
2023/10/22 01:05:10;;;;;;;2.40;2.00;;;;;;;16.76;54.18;97354.63;103723;1283;65634;-41
2023/10/22 01:07:38;;;;;;;2.90;2.00;;;;;;;16.76;54.27;97350.90;103732;1277;72465;-41
2023/10/22 01:10:09;;;;;;;2.60;2.20;;;;;;;16.76;54.16;97354.31;103813;1278;61425;-41
2023/10/22 01:12:38;;;;;;;3.00;1.80;;;;;;;16.76;54.17;97351.38;103594;1277;61313;-41
2023/10/22 01:15:06;;;;;;;2.90;2.10;;;;;;;16.76;54.18;97350.91;103765;1277;74468;-41
2023/10/22 01:17:33;;;;;;;2.50;1.90;;;;;;;16.76;54.18;97344.58;103860;1277;65273;-41
2023/10/22 01:19:59;;;;;;;2.00;1.70;;;;;;;16.76;54.18;97342.25;103703;1277;72470;-41
2023/10/22 01:22:26;;;;;;;4.40;2.00;;;;;;;16.76;54.22;97336.08;103676;1283;61225;-41
2023/10/22 01:24:54;;;;;;;3.00;2.10;;;;;;;16.76;54.20;97329.21;103641;1277;61617;-41
2023/10/22 01:27:21;;;;;;;3.30;1.80;;;;;;;16.76;54.15;97328.05;103817;1283;74412;-41
2023/10/22 01:29:47;;;;;;;2.50;1.90;;;;;;;16.76;54.14;97328.44;103875;1282;65000;-41
2023/10/22 01:32:15;;;;;;;2.50;2.00;;;;;;;16.77;54.17;97326.05;103839;1277;72597;-41
2023/10/22 01:34:42;;;;;;;2.90;1.90;;;;;;;16.77;54.10;97326.67;103792;1282;61305;-41
2023/10/22 01:37:09;;;;;;;2.70;1.90;;;;;;;16.77;54.13;97326.91;103771;1277;61372;-41
2023/10/22 01:39:36;;;;;;;3.10;1.90;;;;;;;16.76;54.14;97326.27;103758;1278;74632;-41
2023/10/22 01:42:04;;;;;;;3.40;1.70;;;;;;;16.76;54.26;97325.04;103685;1277;65442;-41
2023/10/22 01:44:31;;;;;;;2.60;1.80;;;;;;;16.77;54.20;97328.53;103657;1281;71308;-41
2023/10/22 01:46:57;;;;;;;2.10;1.90;;;;;;;16.76;54.18;97333.05;103660;1283;61917;-41
2023/10/22 01:49:24;;;;;;;2.70;1.80;;;;;;;16.76;54.21;97334.98;103470;1277;61332;-41
2023/10/22 01:51:50;;;;;;;2.50;1.60;;;;;;;16.77;54.22;97341.04;103655;1283;74649;-41
2023/10/22 01:54:17;;;;;;;2.80;2.00;;;;;;;16.76;54.21;97340.18;103677;1281;65555;-41
2023/10/22 01:56:44;;;;;;;3.60;1.70;;;;;;;16.76;54.19;97341.64;103789;1277;72626;-41
2023/10/22 01:59:11;;;;;;;2.70;2.20;;;;;;;16.76;54.14;97342.57;103791;1282;61294;-41
2023/10/22 02:01:39;;;;;;;3.90;1.90;;;;;;;16.76;54.20;97339.23;103744;1277;61307;-41
2023/10/22 02:04:06;;;;;;;1.80;1.50;;;;;;;16.76;54.19;97339.48;103741;1279;74448;-41
2023/10/22 02:06:33;;;;;;;2.30;1.80;;;;;;;16.76;54.20;97331.14;103944;1280;65423;-41
2023/10/22 02:09:00;;;;;;;2.20;1.80;;;;;;;16.76;54.18;97331.84;103765;1277;72468;-41
2023/10/22 02:11:27;;;;;;;2.60;1.70;;;;;;;16.76;54.14;97325.41;103659;1281;61227;-41
2023/10/22 02:13:53;;;;;;;2.60;1.70;;;;;;;16.76;54.15;97321.48;103905;1277;61367;-41
2023/10/22 02:16:20;;;;;;;2.20;1.60;;;;;;;16.76;54.14;97316.06;103958;1277;73521;-41
2023/10/22 02:18:47;;;;;;;6.00;1.90;;;;;;;16.76;54.13;97324.11;103821;1281;65500;-40
2023/10/22 02:21:15;;;;;;;2.50;1.70;;;;;;;16.76;54.21;97325.42;103723;1277;72466;-40
2023/10/22 02:23:42;;;;;;;2.80;2.20;;;;;;;16.76;54.16;97322.23;103671;1282;61329;-43
2023/10/22 02:26:09;;;;;;;2.80;1.90;;;;;;;16.76;54.22;97318.70;103726;1277;61343;-42
2023/10/22 02:28:36;;;;;;;3.10;1.90;;;;;;;16.76;54.23;97321.00;103926;1279;74736;-41
2023/10/22 02:31:04;;;;;;;2.10;1.70;;;;;;;16.76;54.24;97320.71;103923;1277;66653;-43
2023/10/22 02:33:32;;;;;;;3.20;2.00;;;;;;;16.76;54.18;97317.21;104300;1277;72646;-41
2023/10/22 02:35:59;;;;;;;2.30;1.70;;;;;;;16.76;54.18;97314.06;103805;1283;61294;-41
2023/10/22 02:38:26;;;;;;;2.00;1.80;;;;;;;16.76;54.16;97312.45;103971;1277;61331;-42
2023/10/22 02:40:52;;;;;;;2.00;1.70;;;;;;;16.76;54.18;97307.35;104001;1283;74502;-41
2023/10/22 02:43:19;;;;;;;3.30;2.00;;;;;;;16.76;54.22;97306.17;103964;1283;66293;-41
2023/10/22 02:45:50;;;;;;;4.30;2.20;;;;;;;16.76;54.24;97306.65;104009;1277;72605;-41
2023/10/22 02:48:16;;;;;;;2.10;1.50;;;;;;;16.76;54.24;97303.02;103620;1282;61433;-41
2023/10/22 02:50:45;;;;;;;2.30;1.80;;;;;;;16.76;54.24;97298.38;103785;1277;61371;-41
2023/10/22 02:53:12;;;;;;;3.40;2.20;;;;;;;16.76;54.25;97295.67;103748;1277;74772;-41
2023/10/22 02:55:39;;;;;;;2.30;1.90;;;;;;;16.76;54.23;97293.29;103855;1277;66219;-41
2023/10/22 02:58:06;;;;;;;2.80;2.00;;;;;;;16.76;54.25;97293.98;103950;1277;71689;-41
2023/10/22 03:00:34;;;;;;;3.60;2.00;;;;;;;16.76;54.20;97287.95;104045;1282;61193;-41
2023/10/22 03:03:03;;;;;;;3.90;2.20;;;;;;;16.76;54.12;97287.41;103933;1283;61169;-41
2023/10/22 03:05:32;;;;;;;2.50;2.00;;;;;;;16.76;54.24;97287.40;104137;1277;74711;-41
2023/10/22 03:08:00;;;;;;;2.00;1.70;;;;;;;16.76;54.14;97285.02;103875;1282;66475;-41
2023/10/22 03:10:27;;;;;;;1.80;1.70;;;;;;;16.76;54.20;97287.50;104375;1277;72492;-41
2023/10/22 03:12:53;;;;;;;2.70;2.10;;;;;;;16.76;54.20;97282.46;103891;1282;61840;-41
2023/10/22 03:15:20;;;;;;;3.70;2.10;;;;;;;16.77;54.26;97282.25;103819;1277;61393;-41
2023/10/22 03:17:47;;;;;;;2.70;1.80;;;;;;;16.77;54.24;97283.10;104015;1278;75186;-41
2023/10/22 03:20:16;;;;;;;2.50;1.70;;;;;;;16.76;54.21;97281.55;103890;1281;66164;-41
2023/10/22 03:22:43;;;;;;;2.20;1.90;;;;;;;16.77;54.18;97276.61;103990;1277;71611;-41
2023/10/22 03:25:10;;;;;;;3.00;2.10;;;;;;;16.77;54.19;97277.30;103912;1283;61195;-41
2023/10/22 03:27:36;;;;;;;2.30;1.90;;;;;;;16.77;54.22;97272.66;104034;1277;61406;-41
2023/10/22 03:30:04;;;;;;;2.80;1.90;;;;;;;16.77;54.21;97274.77;103973;1277;75174;-41
2023/10/22 03:32:31;;;;;;;2.80;2.10;;;;;;;16.77;54.14;97275.69;104033;1282;65094;-41
2023/10/22 03:34:58;;;;;;;4.80;2.40;;;;;;;16.77;54.19;97274.67;103887;1277;72531;-41
2023/10/22 03:37:24;;;;;;;3.60;1.90;;;;;;;16.77;54.19;97270.66;103770;1282;61302;-41
2023/10/22 03:39:51;;;;;;;2.20;1.80;;;;;;;16.77;54.17;97270.49;103824;1278;61474;-40
2023/10/22 03:42:17;;;;;;;2.90;2.10;;;;;;;16.77;54.13;97269.35;103656;1279;75016;-40
2023/10/22 03:44:46;;;;;;;2.70;1.80;;;;;;;16.76;54.15;97265.48;103873;1282;65728;-42
2023/10/22 03:47:19;;;;;;;2.70;2.00;;;;;;;16.77;54.19;97263.95;103491;1280;71004;-43
2023/10/22 03:49:52;;;;;;;2.20;1.90;;;;;;;16.76;54.19;97256.50;103395;1279;61301;-41
2023/10/22 03:52:19;;;;;;;2.70;2.00;;;;;;;16.76;54.19;97259.75;103979;1277;61323;-42
2023/10/22 03:54:56;;;;;;;2.70;2.00;;;;;;;16.77;54.25;97255.76;103936;1279;74402;-41
2023/10/22 03:57:22;;;;;;;2.30;1.90;;;;;;;16.77;54.14;97249.12;103845;1281;65873;-41
2023/10/22 03:59:49;;;;;;;2.30;2.00;;;;;;;16.77;54.16;97248.33;103902;1277;72609;-41
2023/10/22 04:02:15;;;;;;;2.70;2.00;;;;;;;16.77;54.09;97247.09;103968;1282;61489;-40
2023/10/22 04:04:42;;;;;;;1.80;1.70;;;;;;;16.76;54.15;97244.07;103773;1281;61384;-40
2023/10/22 04:07:10;;;;;;;2.10;1.80;;;;;;;16.77;54.18;97239.98;103703;1282;74491;-43
2023/10/22 04:09:37;;;;;;;3.00;1.70;;;;;;;16.76;54.26;97237.42;103856;1277;66177;-41
2023/10/22 04:12:05;;;;;;;2.60;1.90;;;;;;;16.76;54.15;97236.50;103857;1277;71669;-41
2023/10/22 04:14:34;;;;;;;3.10;1.60;;;;;;;16.77;54.17;97235.89;103940;1283;61291;-41
2023/10/22 04:17:06;;;;;;;2.80;2.10;;;;;;;16.77;54.17;97234.80;103962;1277;61157;-43
2023/10/22 04:19:35;;;;;;;2.80;2.00;;;;;;;16.77;54.13;97231.48;103543;1277;73588;-41
2023/10/22 04:22:01;;;;;;;4.20;1.90;;;;;;;16.77;54.23;97228.56;103854;1281;64934;-41
2023/10/22 04:24:28;;;;;;;2.50;2.00;;;;;;;16.77;54.23;97236.20;103823;1277;72541;-41
2023/10/22 04:27:04;;;;;;;4.70;1.90;;;;;;;16.77;54.18;97233.05;103588;1283;61378;-42
2023/10/22 04:29:58;;;;;;;4.30;2.10;;;;;;;16.77;54.26;97223.39;103676;1278;61266;-41
2023/10/22 04:44:19;;;;;;;4.30;2.00;;;;;;;16.75;54.19;97217.91;103200;1282;71484;-41
2023/10/22 04:46:54;;;;;;;3.30;2.00;;;;;;;16.74;54.21;97218.44;103669;1282;61317;-41
2023/10/22 04:49:26;;;;;;;3.90;2.00;;;;;;;16.74;54.29;97214.05;105942;1279;61269;-42
2023/10/22 04:52:31;;;;;;;2.70;2.10;;;;;;;16.75;54.26;97206.33;103806;1278;74435;-41
2023/10/22 04:55:18;;;;;;;2.40;1.80;;;;;;;16.75;54.23;97210.73;103675;1283;66014;-40
2023/10/22 04:59:37;;;;;;;3.40;2.10;;;;;;;16.76;54.13;97220.41;102899;1288;74023;-41
2023/10/22 05:02:03;;;;;;;6.10;2.10;;;;;;;16.76;54.24;97222.97;103757;1282;61379;-42
2023/10/22 05:04:31;;;;;;;3.90;2.00;;;;;;;16.76;54.23;97222.57;103690;1277;61397;-40
2023/10/22 05:07:00;;;;;;;3.40;2.20;;;;;;;16.77;54.26;97216.19;103665;1283;74417;-41
2023/10/22 05:31:42;;;;;;;6.20;2.10;;;;;;;16.75;54.38;97231.36;103931;1282;75548;-43
2023/10/22 05:34:09;;;;;;;3.80;2.00;;;;;;;16.75;54.28;97238.84;103908;1283;66159;-41
2023/10/22 05:36:36;;;;;;;3.50;2.10;;;;;;;16.75;54.37;97237.84;103857;1283;72442;-42
2023/10/22 05:39:03;;;;;;;2.30;2.00;;;;;;;16.76;54.31;97243.35;103827;1277;61300;-41
2023/10/22 05:41:30;;;;;;;3.00;1.90;;;;;;;16.76;54.32;97244.61;103898;1282;61271;-42
2023/10/22 05:44:00;;;;;;;3.50;2.20;;;;;;;16.76;54.26;97241.75;103727;1282;74555;-42
2023/10/22 05:46:32;;;;;;;2.80;2.00;;;;;;;16.77;54.28;97241.67;103917;1283;66835;-41
2023/10/22 05:48:59;;;;;;;2.50;1.90;;;;;;;16.77;54.30;97247.49;103694;1277;72422;-42
2023/10/22 05:51:26;;;;;;;3.60;2.00;;;;;;;16.78;54.28;97247.66;103653;1282;61768;-42
2023/10/22 05:53:53;;;;;;;3.50;2.10;;;;;;;16.78;54.34;97246.73;103914;1283;61364;-41
2023/10/22 05:56:23;;;;;;;3.00;2.00;;;;;;;16.79;54.23;97250.70;103969;1283;74614;-41
2023/10/22 05:58:50;;;;;;;3.20;2.10;;;;;;;16.79;54.26;97249.61;103907;1283;65418;-41
2023/10/22 06:01:16;;;;;;;3.20;2.10;;;;;;;16.79;54.26;97245.60;103922;1277;72464;-41
2023/10/22 06:03:43;;;;;;;2.70;2.20;;;;;;;16.79;54.19;97244.14;103946;1290;61273;-41
2023/10/22 06:06:20;;;;;;;3.00;1.90;;;;;;;16.80;54.19;97240.43;103732;1277;61256;-41
2023/10/22 06:08:47;;;;;;;3.20;2.20;;;;;;;16.79;54.21;97241.05;103700;1283;74372;-41
2023/10/22 06:11:14;;;;;;;2.70;1.90;;;;;;;16.80;54.16;97237.89;103633;1282;65646;-41
2023/10/22 06:13:41;;;;;;;2.50;1.90;;;;;;;16.80;54.29;97234.19;103649;1278;72421;-41
2023/10/22 06:16:07;;;;;;;2.60;2.10;;;;;;;16.80;54.29;97239.14;103801;1283;61301;-41
2023/10/22 06:18:35;;;;;;;3.40;2.10;;;;;;;16.80;54.23;97232.13;103967;1277;61252;-42
2023/10/22 06:21:15;;;;;;;5.20;2.20;;;;;;;16.81;54.22;97225.02;103830;1277;74641;-42
2023/10/22 06:23:42;;;;;;;3.40;1.80;;;;;;;16.82;54.26;97218.00;103791;1283;64891;-42
2023/10/22 06:26:11;;;;;;;3.50;2.10;;;;;;;16.82;54.21;97221.88;103973;1277;72454;-41
2023/10/22 06:28:38;;;;;;;3.60;1.90;;;;;;;16.81;54.18;97223.17;103692;1283;61390;-42
2023/10/22 06:31:11;;;;;;;3.00;2.10;;;;;;;16.82;54.11;97226.97;103772;1277;61283;-41
2023/10/22 06:33:38;;;;;;;3.90;2.00;;;;;;;16.81;54.20;97227.04;103814;1283;74531;-42
2023/10/22 06:36:13;;;;;;;2.50;1.90;;;;;;;16.82;54.04;97231.60;103937;1283;65309;-42
2023/10/22 06:38:41;;;;;;;3.70;2.20;;;;;;;16.82;54.15;97234.40;103883;1283;72413;-42
2023/10/22 06:41:14;;;;;;;3.20;2.00;;;;;;;16.83;54.21;97233.95;103880;1283;61308;-42
2023/10/22 06:43:41;;;;;;;2.10;1.70;;;;;;;16.83;54.17;97233.40;103651;1281;61316;-42
2023/10/22 06:46:08;;;;;;;2.30;1.80;;;;;;;16.83;54.25;97231.24;103662;1281;74972;-42
2023/10/22 06:48:35;;;;;;;2.50;1.90;;;;;;;16.83;54.15;97222.36;103673;1283;65614;-42
2023/10/22 06:51:02;;;;;;;2.10;1.90;;;;;;;16.83;54.24;97221.98;103909;1277;72662;-41
2023/10/22 06:53:30;;;;;;;2.10;1.90;;;;;;;16.83;54.14;97218.20;103816;1282;61250;-41
2023/10/22 06:55:57;;;;;;;2.90;1.90;;;;;;;16.83;54.21;97226.95;103971;1278;61364;-41
2023/10/22 06:58:24;;;;;;;4.20;2.40;;;;;;;16.83;54.14;97234.89;103846;1278;74467;-41
2023/10/22 07:00:52;;;;;;;4.50;1.80;;;;;;;16.84;54.15;97233.05;103736;1281;66138;-41
2023/10/22 07:03:18;;;;;;;4.00;2.30;;;;;;;16.83;54.17;97236.68;103797;1276;72454;-41
2023/10/22 07:05:45;;;;;;;3.10;2.20;;;;;;;16.84;54.11;97236.85;103652;1283;61278;-41
2023/10/22 07:08:13;;;;;;;4.20;2.40;;;;;;;16.84;54.12;97234.07;103931;1276;61366;-41
2023/10/22 07:10:39;;;;;;;2.60;2.00;;;;;;;16.84;54.11;97232.98;103966;1281;74425;-43
2023/10/22 07:13:06;;;;;;;3.50;2.10;;;;;;;16.84;54.06;97231.36;103810;1282;65465;-41
2023/10/22 07:15:33;;;;;;;4.20;2.30;;;;;;;16.83;54.16;97230.89;103791;1278;73163;-41
2023/10/22 07:17:59;;;;;;;2.40;1.80;;;;;;;16.83;54.07;97226.40;103953;1283;61265;-40
2023/10/22 07:20:26;;;;;;;3.50;2.10;;;;;;;16.84;54.15;97227.51;103782;1283;61417;-41
2023/10/22 07:22:53;;;;;;;2.50;1.80;;;;;;;16.84;54.13;97230.44;103939;1283;74714;-41
2023/10/22 07:25:19;;;;;;;2.80;1.90;;;;;;;16.84;54.18;97230.60;103759;1283;66112;-41
2023/10/22 07:27:48;;;;;;;3.20;2.20;;;;;;;16.84;54.16;97222.10;103712;1282;72469;-41
2023/10/22 07:30:14;;;;;;;3.00;2.30;;;;;;;16.85;54.14;97212.52;103656;1281;61272;-42
2023/10/22 07:32:41;;;;;;;2.10;1.60;;;;;;;16.84;54.23;97207.02;103971;1283;61316;-42
2023/10/22 07:35:08;;;;;;;2.30;2.00;;;;;;;16.86;54.10;97207.14;103888;1278;74421;-41
2023/10/22 07:37:37;;;;;;;3.20;2.00;;;;;;;16.85;54.15;97215.63;103944;1277;65894;-41
2023/10/22 07:40:04;;;;;;;2.30;1.70;;;;;;;16.86;54.06;97214.33;103897;1283;72663;-41
2023/10/22 07:42:34;;;;;;;2.80;1.90;;;;;;;16.86;54.17;97216.27;103935;1283;61300;-41
2023/10/22 07:45:00;;;;;;;3.10;2.40;;;;;;;16.86;54.10;97208.84;103694;1277;61355;-41
2023/10/22 07:47:27;;;;;;;3.50;2.10;;;;;;;16.87;54.07;97210.09;103848;1283;74544;-41
2023/10/22 07:49:54;;;;;;;3.40;2.20;;;;;;;16.86;54.08;97200.27;103886;1283;65460;-41
2023/10/22 07:52:21;;;;;;;2.90;2.00;;;;;;;16.87;54.08;97199.11;103986;1282;72621;-42
2023/10/22 07:54:49;;;;;;;3.30;2.00;;;;;;;16.87;54.08;97199.42;103811;1282;61290;-42
2023/10/22 07:57:16;;;;;;;2.70;2.10;;;;;;;16.87;54.04;97200.29;103772;1281;61767;-42
2023/10/22 07:59:43;;;;;;;4.10;2.20;;;;;;;16.87;54.09;97201.84;103656;1277;74441;-42
2023/10/22 08:02:10;;;;;;;2.30;1.90;;;;;;;16.87;54.05;97201.15;103938;1282;65566;-40
2023/10/22 08:04:37;;;;;;;2.20;2.00;;;;;;;16.87;54.09;97198.05;103990;1278;72662;-41
2023/10/22 08:07:04;;;;;;;3.70;1.90;;;;;;;16.87;54.08;97206.71;103995;1282;61315;-41
2023/10/22 08:09:31;;;;;;;6.00;2.00;;;;;;;16.88;54.03;97211.66;103899;1277;61361;-42
2023/10/22 08:11:58;;;;;;;4.00;2.20;;;;;;;16.88;54.16;97216.55;104350;1276;73467;-42
2023/10/22 08:14:25;;;;;;;3.10;2.10;;;;;;;16.89;54.10;97210.98;103871;1281;65945;-42
2023/10/22 08:16:52;;;;;;;3.30;2.30;;;;;;;16.89;54.11;97212.63;103774;1283;72552;-42
2023/10/22 08:19:19;;;;;;;2.60;1.80;;;;;;;16.89;54.08;97205.73;103958;1282;61392;-43
2023/10/22 08:21:45;;;;;;;2.60;2.00;;;;;;;16.89;54.08;97202.81;103699;1277;61338;-41
2023/10/22 08:24:12;;;;;;;2.90;2.00;;;;;;;16.90;54.02;97203.98;103765;1283;74694;-41
2023/10/22 08:26:39;;;;;;;2.50;1.70;;;;;;;16.91;54.05;97214.84;103566;1283;66212;-41
2023/10/22 08:29:08;;;;;;;3.00;1.90;;;;;;;16.90;54.01;97224.73;103861;1283;71562;-41
2023/10/22 08:31:35;;;;;;;2.80;2.00;;;;;;;16.92;53.98;97216.40;103713;1282;61301;-42
2023/10/22 08:34:02;;;;;;;3.80;2.20;;;;;;;16.92;53.98;97220.88;103715;1281;61408;-41
2023/10/22 08:36:29;;;;;;;2.80;1.80;;;;;;;16.92;54.04;97220.05;105597;1279;73310;-41
2023/10/22 08:38:56;;;;;;;2.80;2.10;;;;;;;16.92;54.03;97208.68;103890;1281;65025;-41
2023/10/22 08:41:23;;;;;;;2.50;1.90;;;;;;;16.93;54.06;97202.30;103857;1283;72498;-41
2023/10/22 08:43:50;;;;;;;3.30;2.10;;;;;;;16.93;54.09;97199.75;103750;1283;62014;-41
2023/10/22 08:46:17;;;;;;;3.10;2.20;;;;;;;16.93;53.95;97192.94;103847;1279;61403;-41
2023/10/22 08:48:44;;;;;;;2.80;2.10;;;;;;;16.94;54.06;97194.73;103904;1283;73469;-41
2023/10/22 08:51:11;;;;;;;2.50;2.10;;;;;;;16.94;53.97;97199.36;103647;1283;248449;-41
2023/10/22 08:53:37;;;;;;;3.50;2.10;;;;;;;16.94;53.99;97202.55;103734;1281;72540;-41
2023/10/22 08:56:04;;;;;;;3.80;2.30;;;;;;;16.95;53.94;97201.95;103691;1281;61301;-42
2023/10/22 08:58:31;;;;;;;2.40;2.10;;;;;;;16.95;53.96;97201.94;103796;1277;61388;-41
2023/10/22 09:00:58;;;;;;;3.60;2.30;;;;;;;16.95;53.96;97199.87;103908;1277;74499;-41
2023/10/22 09:03:25;;;;;;;3.10;2.10;;;;;;;16.95;53.98;97198.79;103655;1282;65977;-41
2023/10/22 09:05:53;;;;;;;2.90;1.90;;;;;;;16.95;54.08;97188.96;103814;1283;71995;-41
2023/10/22 09:08:20;;;;;;;5.10;2.10;;;;;;;16.96;53.86;97183.18;103817;1283;61278;-41
2023/10/22 09:10:47;;;;;;;3.60;2.60;;;;;;;16.96;53.93;97176.69;103727;1283;61383;-43
2023/10/22 09:13:22;;;;;;;3.30;1.80;;;;;;;16.95;54.00;97165.55;103782;1277;74573;-43
2023/10/22 09:15:50;;;;;;;4.70;2.00;;;;;;;16.95;53.97;97157.83;103724;1283;65335;-43
2023/10/22 09:18:17;;;;;;;2.80;1.90;;;;;;;16.95;54.02;97159.55;103700;1277;72713;-42
2023/10/22 09:20:45;;;;;;;5.50;2.20;;;;;;;16.95;53.98;97158.52;103902;1291;62078;-41
2023/10/22 09:23:19;;;;;;;3.10;2.30;;;;;;;16.95;53.94;97156.21;103904;1280;61352;-41
2023/10/22 09:25:50;;;;;;;5.00;2.30;;;;;;;16.96;54.03;97151.80;103688;1281;74338;-41
2023/10/22 09:28:22;;;;;;;3.50;2.00;;;;;;;16.95;54.03;97156.05;103861;1283;65400;-41
2023/10/22 09:30:54;;;;;;;4.50;2.30;;;;;;;16.95;53.98;97157.84;103796;1277;72725;-43
2023/10/22 09:33:29;;;;;;;3.10;2.20;;;;;;;16.95;54.04;97159.92;103723;1278;61319;-43
2023/10/22 09:36:12;;;;;;;3.70;2.40;;;;;;;16.97;53.91;97158.23;103933;1280;61263;-41
2023/10/22 09:38:49;;;;;;;4.10;2.30;;;;;;;16.96;54.00;97150.97;103874;1281;74717;-41
2023/10/22 09:41:31;;;;;;;3.30;2.20;;;;;;;16.96;54.00;97142.16;103729;1290;65321;-43
2023/10/22 09:44:01;;;;;;;3.50;2.40;;;;;;;16.96;54.00;97140.54;103813;1283;72649;-43
2023/10/22 09:46:30;;;;;;;3.80;2.20;;;;;;;16.96;53.90;97141.06;103990;1283;61279;-41
2023/10/22 09:48:58;;;;;;;3.80;2.50;;;;;;;16.96;54.01;97133.05;104005;1285;61324;-40
2023/10/22 09:51:32;;;;;;;3.60;2.20;;;;;;;16.96;54.01;97129.57;103993;1283;75081;-40
2023/10/22 09:54:02;;;;;;;3.80;2.60;;;;;;;16.96;53.96;97130.27;103695;1277;66395;-41
2023/10/22 09:56:29;;;;;;;3.40;2.20;;;;;;;16.97;54.04;97135.48;103649;1282;71448;-41
2023/10/22 09:59:04;;;;;;;4.50;2.40;;;;;;;16.98;53.97;97137.03;103562;1283;61298;-41
2023/10/22 10:01:33;;;;;;;4.30;2.40;;;;;;;16.98;54.02;97135.49;103989;1282;61935;-41
2023/10/22 10:04:01;;;;;;;4.30;2.40;;;;;;;16.99;54.00;97140.91;103919;1282;74755;-42
2023/10/22 10:06:30;;;;;;;4.60;2.30;;;;;;;17.00;53.98;97132.05;103718;1290;65951;-43
2023/10/22 10:08:56;;;;;;;4.60;2.30;;;;;;;17.00;53.91;97127.48;103553;1283;72451;-41
2023/10/22 10:11:23;;;;;;;4.30;2.60;;;;;;;17.00;53.96;97122.40;103911;1283;61380;-41
2023/10/22 10:13:50;;;;;;;4.00;2.40;;;;;;;17.01;54.00;97118.62;103804;1283;61320;-41
2023/10/22 10:16:16;;;;;;;3.90;2.30;;;;;;;17.01;54.02;97110.42;103903;1282;74635;-40
2023/10/22 10:18:59;;;;;;;3.80;2.30;;;;;;;17.02;53.89;97113.55;103545;1285;65978;-41
2023/10/22 10:21:38;;;;;;;4.80;2.90;;;;;;;17.02;53.94;97113.70;103728;1283;72447;-41
2023/10/22 10:24:25;;;;;;;5.20;2.70;;;;;;;17.03;53.97;97116.27;103721;1282;61387;-41
2023/10/22 10:27:12;;;;;;;4.80;2.70;;;;;;;17.04;54.03;97110.27;103729;1283;61318;-41
2023/10/22 10:29:40;;;;;;;5.10;2.60;;;;;;;17.05;54.00;97098.23;103598;1280;74663;-41
2023/10/22 10:32:12;;;;;;;3.80;2.70;;;;;;;17.06;53.98;97092.08;103701;1283;63984;-41
2023/10/22 10:34:40;;;;;;;4.70;2.60;;;;;;;17.06;53.96;97091.00;103644;1280;72691;-41
2023/10/22 10:37:14;;;;;;;4.80;2.90;;;;;;;17.07;53.94;97086.84;103690;1280;61223;-43
2023/10/22 10:39:48;;;;;;;5.40;2.80;;;;;;;17.08;53.87;97084.15;103728;1279;61367;-41
2023/10/22 10:42:36;;;;;;;4.50;2.90;;;;;;;17.08;53.92;97083.31;103880;1281;73273;-41
2023/10/22 10:45:07;;;;;;;4.30;2.80;;;;;;;17.08;53.90;97078.06;103958;1290;66090;-42
2023/10/22 10:47:38;;;;;;;4.80;2.80;;;;;;;17.09;53.89;97070.27;103957;1282;72666;-41
2023/10/22 10:50:06;;;;;;;4.10;2.60;;;;;;;17.10;53.89;97067.96;103693;1277;61364;-42
2023/10/22 10:52:33;;;;;;;5.40;2.80;;;;;;;17.11;53.96;97069.31;103647;1281;61207;-42
2023/10/22 10:55:10;;;;;;;5.50;2.80;;;;;;;17.12;53.90;97066.76;105610;1276;74398;-42
2023/10/22 10:57:38;;;;;;;4.00;2.60;;;;;;;17.12;53.83;97071.09;105015;1279;65533;-41
2023/10/22 11:00:06;;;;;;;4.40;2.50;;;;;;;17.12;53.90;97067.94;104270;1282;72664;-41
2023/10/22 11:02:43;;;;;;;8.80;3.20;;;;;;;17.12;53.89;97065.30;104000;1279;61409;-41
2023/10/22 11:05:10;;;;;;;4.20;2.60;;;;;;;17.14;53.87;97064.95;103960;1282;61207;-43
2023/10/22 11:07:37;;;;;;;4.00;2.60;;;;;;;17.13;53.84;97058.92;103946;1281;75127;-43
2023/10/22 11:10:22;;;;;;;4.60;2.30;;;;;;;17.14;53.94;97056.23;103761;1283;65634;-42
2023/10/22 11:12:49;;;;;;;3.70;2.50;;;;;;;17.15;53.93;97056.55;103724;1276;72374;-43
2023/10/22 11:15:16;;;;;;;4.50;2.90;;;;;;;17.15;53.86;97064.05;103768;1281;61373;-42
2023/10/22 11:17:45;;;;;;;7.60;2.70;;;;;;;17.16;53.85;97069.41;103862;1283;61345;-42
2023/10/22 11:20:15;;;;;;;5.50;3.00;;;;;;;17.18;53.93;97065.56;103796;1276;74764;-42
2023/10/22 11:22:41;;;;;;;5.10;2.90;;;;;;;17.17;53.87;97064.64;103667;1283;66221;-42
2023/10/22 11:25:09;;;;;;;6.40;2.90;;;;;;;17.18;53.85;97058.70;103559;1283;72632;-42
2023/10/22 11:27:37;;;;;;;5.90;2.70;;;;;;;17.18;53.86;97053.83;103790;1282;61284;-42
2023/10/22 11:30:05;;;;;;;4.70;2.90;;;;;;;17.19;53.97;97050.46;104006;1278;61358;-42
2023/10/22 11:32:32;;;;;;;4.30;2.80;;;;;;;17.19;53.74;97051.70;103813;1279;74617;-42
2023/10/22 11:34:59;;;;;;;4.10;2.80;;;;;;;17.20;53.86;97040.03;103674;1281;65906;-42
2023/10/22 11:37:31;;;;;;;5.10;2.80;;;;;;;17.21;53.88;97034.58;103807;1276;72686;-42
2023/10/22 11:39:58;;;;;;;4.10;2.50;;;;;;;17.22;53.82;97040.39;103786;1290;61666;-42
2023/10/22 11:42:32;;;;;;;5.80;3.20;;;;;;;17.24;53.83;97037.17;103746;1282;61298;-42
2023/10/22 11:44:58;;;;;;;4.50;2.80;;;;;;;17.25;53.84;97034.88;103981;1283;74764;-42
2023/10/22 11:47:27;;;;;;;5.70;2.90;;;;;;;17.26;53.80;97036.92;103681;1282;65622;-41
2023/10/22 11:49:54;;;;;;;5.00;2.80;;;;;;;17.28;53.90;97043.09;103452;1276;73106;-41
2023/10/22 11:52:37;;;;;;;7.80;2.70;;;;;;;17.30;53.82;97039.39;103853;1282;61278;-41
2023/10/22 11:55:09;;;;;;;4.60;2.80;;;;;;;17.31;53.84;97040.34;103919;1280;61650;-40
2023/10/22 11:57:55;;;;;;;4.60;2.90;;;;;;;17.33;53.87;97042.63;103911;1277;74741;-41
2023/10/22 12:00:22;;;;;;;6.20;3.10;;;;;;;17.34;53.85;97044.04;104275;1278;64063;-41
2023/10/22 12:02:49;;;;;;;5.20;2.90;;;;;;;17.36;53.78;97042.99;103688;1282;72632;-42
2023/10/22 12:05:16;;;;;;;6.20;3.20;;;;;;;17.38;53.78;97041.79;103787;1281;61373;-41
2023/10/22 12:07:42;;;;;;;5.70;3.10;;;;;;;17.39;53.75;97044.84;103699;1280;61416;-40